Time;durP1;ratioP1;P1;durP2;ratioP2;P2;SDS_P1;SDS_P2;PMS_P1;PMS_P2;Temp;Humidity;BMP_temperature;BMP_pressure;BME280_temperature;BME280_humidity;BME280_pressure;Samples;Min_cycle;Max_cycle;Signal;HPM_P1;HPM_P2
2023/02/27 00:01:47;;;;;;;3.10;2.70;;;;;;;0.31;77.16;101974.44;5049116;28;20198;-79
2023/02/27 00:04:13;;;;;;;2.73;2.27;;;;;;;0.34;77.61;101961.75;5048144;28;20260;-80
2023/02/27 00:06:40;;;;;;;4.30;2.70;;;;;;;0.39;77.60;101959.41;5058871;28;20222;-80
2023/02/27 00:09:07;;;;;;;4.20;2.70;;;;;;;0.40;76.70;101963.75;5054783;28;20218;-80
2023/02/27 00:11:33;;;;;;;3.40;3.07;;;;;;;0.34;77.14;101961.75;5058029;28;20296;-80
2023/02/27 00:14:00;;;;;;;2.87;2.37;;;;;;;0.32;76.93;101960.81;5057941;28;20201;-80
2023/02/27 00:16:27;;;;;;;2.87;2.67;;;;;;;0.40;76.42;101963.75;5058105;28;20236;-80
2023/02/27 00:18:55;;;;;;;4.20;2.30;;;;;;;0.36;75.67;101973.00;5058062;28;20218;-79
2023/02/27 00:21:22;;;;;;;2.60;2.40;;;;;;;0.42;76.17;101974.06;5049343;28;20238;-79
2023/02/27 00:23:50;;;;;;;3.73;2.70;;;;;;;0.43;76.39;101979.28;5047873;28;20195;-80
2023/02/27 00:26:16;;;;;;;3.20;2.87;;;;;;;0.33;76.75;101987.38;5058631;28;20304;-80
2023/02/27 00:28:43;;;;;;;4.00;2.97;;;;;;;0.15;76.40;101977.97;5057954;28;20779;-80
2023/02/27 00:31:09;;;;;;;3.37;2.90;;;;;;;0.16;76.37;101984.88;5058304;28;20337;-80
2023/02/27 00:33:37;;;;;;;3.10;2.80;;;;;;;0.22;76.46;101971.47;5047373;28;20554;-80
2023/02/27 00:36:03;;;;;;;3.73;2.73;;;;;;;0.22;76.42;101981.72;5049552;28;20217;-80
2023/02/27 00:38:30;;;;;;;3.70;3.40;;;;;;;0.21;76.42;101985.09;5050783;28;20222;-79
2023/02/27 00:40:56;;;;;;;3.50;3.20;;;;;;;0.23;76.29;101980.03;5058421;28;20347;-80
2023/02/27 00:43:22;;;;;;;4.60;3.33;;;;;;;0.24;76.56;101981.78;5049651;28;20202;-80
2023/02/27 00:45:49;;;;;;;3.10;2.87;;;;;;;0.24;76.30;101981.78;5046313;28;20267;-80
2023/02/27 00:48:16;;;;;;;3.70;3.03;;;;;;;0.23;77.00;101978.34;5046710;28;20228;-80
2023/02/27 00:50:43;;;;;;;3.80;2.90;;;;;;;0.27;76.44;101972.53;5049474;28;20209;-80
2023/02/27 00:53:10;;;;;;;3.60;2.97;;;;;;;0.27;76.80;101982.81;5046584;28;20259;-79
2023/02/27 00:55:36;;;;;;;3.50;2.87;;;;;;;0.24;76.73;101985.25;5049313;28;20202;-80
2023/02/27 00:58:03;;;;;;;7.97;3.53;;;;;;;0.25;76.92;101987.00;5049303;28;20750;-79
2023/02/27 01:00:29;;;;;;;3.30;3.00;;;;;;;0.23;76.85;101982.59;5047654;28;20230;-81
2023/02/27 01:02:56;;;;;;;3.37;3.00;;;;;;;0.23;76.72;101978.34;5057592;28;20729;-80
2023/02/27 01:05:23;;;;;;;4.03;2.80;;;;;;;0.21;77.23;101972.25;5057988;28;20198;-80
2023/02/27 01:07:51;;;;;;;2.93;2.73;;;;;;;0.23;76.60;101973.19;5058256;28;20220;-80
2023/02/27 01:10:17;;;;;;;4.17;2.90;;;;;;;0.21;77.48;101974.81;5059001;28;20217;-80
2023/02/27 01:12:44;;;;;;;3.67;2.67;;;;;;;0.22;76.86;101963.75;5059044;28;20225;-80
2023/02/27 01:15:11;;;;;;;4.57;3.10;;;;;;;0.18;77.18;101967.84;5058942;28;20256;-80
2023/02/27 01:17:38;;;;;;;2.90;2.70;;;;;;;0.17;77.46;101966.06;5058768;28;20259;-79
2023/02/27 01:20:07;;;;;;;4.00;2.83;;;;;;;0.16;77.70;101966.91;5058907;28;20226;-81
2023/02/27 01:22:34;;;;;;;3.43;3.13;;;;;;;0.17;77.95;101965.22;5058399;28;20214;-80
2023/02/27 01:25:02;;;;;;;2.90;2.60;;;;;;;0.14;77.59;101962.47;5058685;28;20198;-80
2023/02/27 01:27:28;;;;;;;3.57;2.83;;;;;;;0.05;77.67;101959.50;5058784;28;20207;-79
2023/02/27 01:29:54;;;;;;;3.43;2.83;;;;;;;-0.01;78.37;101949.81;5058494;28;20221;-80
2023/02/27 01:32:21;;;;;;;5.03;2.83;;;;;;;-0.24;78.42;101947.00;5058717;28;20211;-80
2023/02/27 01:34:47;;;;;;;3.20;2.70;;;;;;;-0.21;78.68;101936.88;5058539;28;20228;-80
2023/02/27 01:37:14;;;;;;;3.37;2.30;;;;;;;-0.28;78.81;101933.94;5057807;28;20280;-80
2023/02/27 01:39:40;;;;;;;3.10;2.73;;;;;;;-0.26;79.09;101907.56;5058276;28;20226;-80
2023/02/27 01:42:18;;;;;;;4.00;3.13;;;;;;;-0.60;80.15;101907.56;5058143;28;20220;-80
2023/02/27 01:45:17;;;;;;;2.97;2.40;;;;;;;-0.89;81.35;101880.44;5058719;28;20240;-80
2023/02/27 01:47:47;;;;;;;2.50;2.17;;;;;;;-1.10;82.16;101842.66;5058125;28;20272;-80
2023/02/27 01:50:14;;;;;;;3.97;2.10;;;;;;;-1.21;82.92;101819.09;5057960;28;20222;-80
2023/02/27 01:52:43;;;;;;;3.90;2.60;;;;;;;-1.27;83.74;101792.25;5058395;28;20214;-79
2023/02/27 01:55:12;;;;;;;3.67;2.60;;;;;;;-1.47;84.59;101758.81;5057874;28;20201;-80
2023/02/27 01:57:41;;;;;;;3.60;3.10;;;;;;;-1.75;86.13;101733.47;5057842;28;20268;-80
2023/02/27 02:00:08;;;;;;;3.27;2.97;;;;;;;-1.90;87.98;101678.94;5056996;28;20237;-79
2023/02/27 02:02:39;;;;;;;3.13;2.63;;;;;;;-1.87;88.57;101628.81;5055923;28;20212;-80
2023/02/27 02:05:07;;;;;;;4.20;3.30;;;;;;;-1.63;88.52;101603.53;5056759;28;20308;-79
2023/02/27 02:07:37;;;;;;;4.23;3.57;;;;;;;-1.51;88.50;101593.03;5057291;28;20569;-80
2023/02/27 02:10:04;;;;;;;5.23;4.50;;;;;;;-1.40;88.03;101589.31;5057169;28;20228;-80
2023/02/27 02:12:34;;;;;;;3.87;3.53;;;;;;;-1.54;88.02;101595.47;5057051;28;20216;-80
2023/02/27 02:15:03;;;;;;;5.17;3.83;;;;;;;-1.85;89.65;101586.25;5056780;28;20214;-79
2023/02/27 02:17:44;;;;;;;5.73;4.23;;;;;;;-1.91;90.30;101568.03;5056630;28;20205;-79
2023/02/27 02:20:44;;;;;;;4.50;4.10;;;;;;;-1.89;91.24;101534.84;5057202;28;20228;-80
2023/02/27 02:23:46;;;;;;;4.30;3.80;;;;;;;-1.61;91.38;101529.38;5024139;28;20212;-80
2023/02/27 02:26:26;;;;;;;4.80;4.30;;;;;;;-1.65;90.82;101541.16;5057731;28;20255;-80
2023/02/27 02:29:30;;;;;;;5.00;4.00;;;;;;;-1.74;90.28;101550.09;5058113;28;20276;-80
2023/02/27 02:32:27;;;;;;;4.50;4.10;;;;;;;-1.81;90.87;101549.78;5056858;28;20197;-80
2023/02/27 02:35:26;;;;;;;4.57;4.20;;;;;;;-1.99;91.79;101551.44;5057460;28;20201;-79
2023/02/27 02:38:38;;;;;;;5.57;4.53;;;;;;;-2.01;91.98;101523.22;5056766;28;20205;-80
2023/02/27 02:41:15;;;;;;;4.90;4.40;;;;;;;-1.95;92.43;101521.78;5014392;28;20335;-80
2023/02/27 02:43:54;;;;;;;6.80;4.70;;;;;;;-1.95;92.43;101532.00;5050246;28;20201;-80
2023/02/27 02:46:27;;;;;;;6.20;4.87;;;;;;;-1.96;92.18;101532.78;5058446;28;20205;-80
2023/02/27 02:48:59;;;;;;;7.10;4.47;;;;;;;-2.02;92.82;101535.94;5057497;28;20233;-80
2023/02/27 02:51:35;;;;;;;5.00;4.00;;;;;;;-1.97;92.73;101531.06;5057250;28;20516;-80
2023/02/27 02:54:06;;;;;;;5.67;4.20;;;;;;;-2.03;92.61;101540.16;5057949;28;20271;-81
2023/02/27 02:56:39;;;;;;;4.30;3.90;;;;;;;-2.06;93.00;101541.69;5058393;28;20250;-80
2023/02/27 02:59:12;;;;;;;5.60;4.07;;;;;;;-2.03;93.01;101537.59;5057561;28;20256;-80
2023/02/27 03:01:45;;;;;;;6.20;4.13;;;;;;;-2.05;92.74;101538.34;5057672;28;20221;-80
2023/02/27 03:04:16;;;;;;;8.20;4.50;;;;;;;-2.03;92.83;101542.72;5057844;28;20201;-80
2023/02/27 03:06:48;;;;;;;4.70;4.20;;;;;;;-2.07;92.83;101555.28;5057989;28;20248;-80
2023/02/27 03:09:19;;;;;;;4.50;3.87;;;;;;;-2.07;93.01;101558.72;5058075;28;20233;-80
2023/02/27 03:11:50;;;;;;;5.53;3.90;;;;;;;-2.00;92.77;101559.94;5057508;28;20250;-81
2023/02/27 03:14:24;;;;;;;4.50;3.63;;;;;;;-1.98;92.55;101571.13;5057734;28;20235;-81
2023/02/27 03:16:54;;;;;;;8.33;3.90;;;;;;;-2.03;92.31;101581.09;5058693;28;20190;-80
2023/02/27 03:19:25;;;;;;;4.97;3.60;;;;;;;-2.07;92.76;101583.44;5058450;28;20230;-81
2023/02/27 03:21:56;;;;;;;5.17;4.33;;;;;;;-1.95;92.72;101586.59;5060663;28;20232;-81
2023/02/27 03:24:26;;;;;;;5.97;4.40;;;;;;;-1.95;92.59;101594.28;5061175;28;20209;-81
2023/02/27 03:26:58;;;;;;;5.10;4.60;;;;;;;-2.06;92.67;101600.50;5061902;28;20206;-81
2023/02/27 03:29:30;;;;;;;6.03;3.97;;;;;;;-2.09;92.80;101597.81;5061313;28;20241;-80
2023/02/27 03:32:01;;;;;;;6.83;4.00;;;;;;;-2.15;93.30;101592.41;5061942;28;20189;-80
2023/02/27 03:34:32;;;;;;;5.83;3.93;;;;;;;-2.23;93.83;101592.88;5061712;28;20283;-80
2023/02/27 03:37:05;;;;;;;5.50;4.23;;;;;;;-2.19;94.07;101586.25;5062013;28;20205;-80
2023/02/27 03:39:40;;;;;;;4.47;3.80;;;;;;;-2.06;93.85;101583.50;5060984;28;20263;-80
2023/02/27 03:42:16;;;;;;;4.43;4.10;;;;;;;-1.92;93.59;101596.09;5061259;28;20616;-80
2023/02/27 03:44:53;;;;;;;4.30;3.90;;;;;;;-1.83;92.72;101606.81;5061263;28;20216;-80
2023/02/27 03:47:20;;;;;;;4.57;4.10;;;;;;;-1.88;92.07;101627.06;5062575;28;20773;-80
2023/02/27 03:49:49;;;;;;;3.97;3.67;;;;;;;-1.93;92.10;101633.59;5061442;28;20256;-80
2023/02/27 03:52:16;;;;;;;4.23;3.93;;;;;;;-1.94;92.06;101639.53;5061239;28;20201;-81
2023/02/27 03:54:50;;;;;;;7.13;3.90;;;;;;;-1.86;92.28;101648.50;5060622;28;20252;-81
2023/02/27 03:57:17;;;;;;;5.50;4.17;;;;;;;-1.83;91.65;101658.84;5060023;28;20201;-80
2023/02/27 03:59:44;;;;;;;6.00;3.93;;;;;;;-1.74;91.54;101671.25;5060561;28;20234;-80
2023/02/27 04:02:11;;;;;;;5.93;4.17;;;;;;;-1.74;90.84;101688.31;5060358;28;20225;-81
2023/02/27 04:04:38;;;;;;;5.73;3.50;;;;;;;-1.64;90.98;101703.34;5060272;28;20217;-81
2023/02/27 04:07:23;;;;;;;4.93;4.23;;;;;;;-1.58;90.14;101710.44;5059640;28;20214;-80
2023/02/27 04:10:16;;;;;;;5.10;4.03;;;;;;;-1.64;89.57;101740.03;5058988;28;20220;-80
2023/02/27 04:13:08;;;;;;;4.33;3.93;;;;;;;-1.83;89.65;101752.69;5039759;28;20202;-80
2023/02/27 04:15:51;;;;;;;3.90;3.50;;;;;;;-1.96;90.91;101742.59;5038818;28;20214;-79
2023/02/27 04:18:29;;;;;;;4.93;3.77;;;;;;;-1.93;91.52;101733.41;5038895;28;20206;-79
2023/02/27 04:20:59;;;;;;;5.53;3.57;;;;;;;-1.87;91.26;101722.59;5039113;28;20222;-80
2023/02/27 04:23:35;;;;;;;7.13;4.23;;;;;;;-1.92;91.48;101721.47;5038552;28;20681;-80
2023/02/27 04:26:16;;;;;;;5.43;3.70;;;;;;;-2.04;91.55;101721.75;5038495;28;20207;-80
2023/02/27 04:28:50;;;;;;;4.67;3.57;;;;;;;-2.20;92.67;101715.81;5038353;28;20233;-80
2023/02/27 04:31:23;;;;;;;6.53;4.00;;;;;;;-2.25;93.32;101699.31;5037260;28;20676;-80
2023/02/27 04:33:55;;;;;;;4.40;4.00;;;;;;;-2.30;93.85;101685.44;5038285;28;20244;-80
2023/02/27 04:36:28;;;;;;;4.33;3.93;;;;;;;-2.36;94.33;101674.84;5038601;28;20256;-79
2023/02/27 04:39:03;;;;;;;6.23;3.90;;;;;;;-2.34;94.94;101667.25;5047429;28;20237;-80
2023/02/27 04:41:35;;;;;;;6.23;3.27;;;;;;;-2.34;94.69;101659.59;5057873;28;20225;-79
2023/02/27 04:44:07;;;;;;;3.80;3.50;;;;;;;-2.23;94.83;101653.38;5057654;28;20672;-80
2023/02/27 04:46:37;;;;;;;12.57;4.03;;;;;;;-2.19;94.35;101652.72;5058212;28;20206;-80
2023/02/27 04:49:12;;;;;;;4.53;4.13;;;;;;;-2.13;93.76;101663.28;5057755;28;20233;-80
2023/02/27 04:51:55;;;;;;;4.73;3.70;;;;;;;-2.10;93.81;101676.25;5057638;28;20205;-79
2023/02/27 04:54:27;;;;;;;7.53;3.33;;;;;;;-2.11;93.90;101683.84;5057898;28;20227;-80
2023/02/27 04:56:57;;;;;;;7.77;3.60;;;;;;;-2.15;93.34;101695.56;5057722;28;20672;-78
2023/02/27 04:59:29;;;;;;;5.73;3.73;;;;;;;-2.25;93.49;101693.34;5057557;28;20217;-80
2023/02/27 05:01:59;;;;;;;6.83;3.57;;;;;;;-2.42;94.62;101682.19;5057142;28;20616;-80
2023/02/27 05:04:28;;;;;;;4.63;3.83;;;;;;;-2.47;95.28;101664.06;5057809;28;20741;-80
2023/02/27 05:06:55;;;;;;;5.60;4.07;;;;;;;-2.49;95.63;101657.13;5057236;28;20209;-80
2023/02/27 05:09:31;;;;;;;5.23;4.30;;;;;;;-2.53;95.71;101652.63;5055964;28;20213;-80
2023/02/27 05:12:02;;;;;;;5.33;4.07;;;;;;;-2.60;96.21;101648.84;5057377;28;20667;-79
2023/02/27 05:14:33;;;;;;;5.63;4.17;;;;;;;-2.59;96.60;101635.28;5056899;28;20216;-80
2023/02/27 05:17:05;;;;;;;4.60;4.07;;;;;;;-2.57;97.10;101635.38;5058052;28;20267;-79
2023/02/27 05:19:33;;;;;;;4.67;4.27;;;;;;;-2.52;96.94;101632.25;5057145;28;20221;-79
2023/02/27 05:22:10;;;;;;;4.53;4.20;;;;;;;-2.56;96.57;101639.69;5056971;28;20798;-80
2023/02/27 05:24:46;;;;;;;5.27;4.23;;;;;;;-2.63;96.42;101644.47;5056619;28;20254;-80
2023/02/27 05:27:20;;;;;;;4.67;4.30;;;;;;;-2.72;96.96;101645.63;5056688;28;20212;-80
2023/02/27 05:29:50;;;;;;;4.50;3.90;;;;;;;-2.72;97.59;101627.75;5056844;28;20226;-80
2023/02/27 05:32:34;;;;;;;7.03;4.67;;;;;;;-2.70;97.72;101632.13;5057070;28;20201;-80
2023/02/27 05:35:11;;;;;;;4.47;4.07;;;;;;;-2.60;97.73;101634.41;5056622;28;20263;-79
2023/02/27 05:37:43;;;;;;;4.93;4.47;;;;;;;-2.64;97.49;101632.47;5056502;28;20201;-79
2023/02/27 05:40:13;;;;;;;7.80;4.73;;;;;;;-2.61;97.89;101635.19;5055846;28;20233;-80
2023/02/27 05:42:43;;;;;;;5.90;4.43;;;;;;;-2.54;98.03;101630.41;5056595;28;20233;-80
2023/02/27 05:45:14;;;;;;;6.03;4.50;;;;;;;-2.52;97.51;101636.47;5056232;28;20217;-80
2023/02/27 05:47:45;;;;;;;5.33;4.83;;;;;;;-2.53;97.43;101645.84;5056486;28;20259;-80
2023/02/27 05:50:15;;;;;;;6.20;5.07;;;;;;;-2.45;97.19;101646.25;5056495;28;20229;-80
2023/02/27 05:52:44;;;;;;;5.90;4.80;;;;;;;-2.31;97.04;101654.66;5056285;28;20585;-80
2023/02/27 05:55:17;;;;;;;5.30;4.90;;;;;;;-2.27;95.90;101677.91;5056457;28;20227;-79
2023/02/27 05:57:47;;;;;;;6.07;4.27;;;;;;;-2.25;95.52;101695.91;5056571;28;20550;-80
2023/02/27 06:00:20;;;;;;;9.67;5.07;;;;;;;-2.38;95.68;101708.81;5056097;28;20279;-80
2023/02/27 06:02:46;;;;;;;5.60;4.67;;;;;;;-2.49;96.06;101716.78;5056263;28;20378;-80
2023/02/27 06:05:14;;;;;;;5.67;4.53;;;;;;;-2.49;96.53;101714.22;5056479;28;20210;-80
2023/02/27 06:07:41;;;;;;;5.13;4.70;;;;;;;-2.36;96.46;101714.88;5056137;28;20205;-80
2023/02/27 06:10:08;;;;;;;5.03;4.53;;;;;;;-2.24;96.18;101721.56;5056388;28;20280;-80
2023/02/27 06:12:35;;;;;;;7.10;4.40;;;;;;;-2.35;95.78;101730.31;5056517;28;20201;-79
2023/02/27 06:15:01;;;;;;;6.00;4.90;;;;;;;-2.42;96.08;101736.78;5056046;28;20263;-79
2023/02/27 06:17:29;;;;;;;4.87;4.37;;;;;;;-2.25;96.01;101739.38;5056171;28;20205;-79
2023/02/27 06:19:55;;;;;;;5.43;4.93;;;;;;;-2.27;95.38;101748.63;5056294;28;20672;-79
2023/02/27 06:22:21;;;;;;;7.10;4.20;;;;;;;-2.35;95.29;101760.13;5056751;28;20256;-80
2023/02/27 06:24:48;;;;;;;5.83;5.00;;;;;;;-2.49;95.57;101757.69;5055852;28;20205;-80
2023/02/27 06:27:14;;;;;;;4.73;4.20;;;;;;;-2.55;96.16;101752.22;5055568;28;20205;-80
2023/02/27 06:29:40;;;;;;;5.47;4.97;;;;;;;-2.50;96.30;101750.78;5055849;28;20658;-78
2023/02/27 06:32:07;;;;;;;9.60;5.03;;;;;;;-2.38;96.42;101752.28;5056027;28;20742;-80
2023/02/27 06:34:34;;;;;;;6.27;5.00;;;;;;;-2.39;95.90;101756.50;5056379;28;20209;-84
2023/02/27 06:37:01;;;;;;;8.13;5.20;;;;;;;-2.34;95.31;101756.75;5056586;28;20206;-82
2023/02/27 06:39:27;;;;;;;6.57;5.87;;;;;;;-2.28;95.23;101767.31;5056669;28;20237;-81
2023/02/27 06:41:53;;;;;;;9.37;4.60;;;;;;;-2.10;95.09;101770.91;5057206;28;20589;-83
2023/02/27 06:44:20;;;;;;;7.90;5.87;;;;;;;-1.97;94.48;101792.00;5057592;28;20201;-84
2023/02/27 06:46:47;;;;;;;7.47;5.47;;;;;;;-1.93;93.70;101802.47;5057100;28;20212;-82
2023/02/27 06:49:13;;;;;;;7.83;5.70;;;;;;;-1.95;93.07;101824.56;5057282;28;20229;-80
2023/02/27 06:51:40;;;;;;;6.50;5.80;;;;;;;-1.82;92.88;101833.78;5057655;28;20201;-81
2023/02/27 06:54:07;;;;;;;5.63;5.13;;;;;;;-1.78;92.25;101856.19;5057656;28;20210;-82
2023/02/27 06:56:34;;;;;;;5.47;4.97;;;;;;;-1.83;91.99;101868.72;5059003;28;20580;-82
2023/02/27 06:59:00;;;;;;;5.10;4.60;;;;;;;-1.87;91.64;101881.28;5056554;28;20290;-81
2023/02/27 07:01:26;;;;;;;5.47;4.77;;;;;;;-1.81;91.56;101889.28;5057295;28;20258;-83
2023/02/27 07:03:53;;;;;;;5.03;4.40;;;;;;;-1.74;92.27;101888.81;5057133;28;20201;-83
2023/02/27 07:06:19;;;;;;;5.30;3.90;;;;;;;-1.85;91.74;101890.78;5057547;28;20232;-84
2023/02/27 07:08:47;;;;;;;7.37;5.07;;;;;;;-1.98;91.92;101907.94;5057440;28;20260;-83
2023/02/27 07:11:13;;;;;;;8.43;4.60;;;;;;;-2.14;92.50;101901.97;5056713;28;20248;-81
2023/02/27 07:13:40;;;;;;;5.70;5.17;;;;;;;-2.31;93.50;101888.22;5055990;28;20691;-83
2023/02/27 07:16:07;;;;;;;5.40;4.17;;;;;;;-2.33;94.25;101860.81;5056910;28;20205;-84
2023/02/27 07:18:33;;;;;;;5.30;4.70;;;;;;;-2.29;94.73;101844.84;5056379;28;20211;-82
2023/02/27 07:21:00;;;;;;;5.53;4.93;;;;;;;-2.21;94.63;101828.25;5056340;28;20259;-82
2023/02/27 07:23:26;;;;;;;5.40;5.00;;;;;;;-2.32;94.99;101837.00;5055866;28;20230;-84
2023/02/27 07:25:54;;;;;;;4.87;4.47;;;;;;;-2.28;94.99;101823.56;5056016;28;20206;-83
2023/02/27 07:28:20;;;;;;;5.80;4.97;;;;;;;-2.35;95.21;101822.38;5058157;28;20582;-83
2023/02/27 07:30:46;;;;;;;5.57;5.07;;;;;;;-2.42;95.56;101823.72;5058155;28;20205;-82
2023/02/27 07:33:13;;;;;;;7.80;4.53;;;;;;;-2.43;96.17;101805.72;5058907;28;20252;-84
2023/02/27 07:35:39;;;;;;;7.37;4.70;;;;;;;-2.49;96.32;101801.16;5058293;28;20267;-83
2023/02/27 07:38:05;;;;;;;6.63;5.50;;;;;;;-2.32;96.96;101790.97;5057221;28;20263;-81
2023/02/27 07:40:32;;;;;;;7.63;5.37;;;;;;;-2.29;96.43;101798.81;5055568;28;20225;-81
2023/02/27 07:42:59;;;;;;;7.40;5.80;;;;;;;-2.31;96.17;101800.41;5057940;28;20245;-83
2023/02/27 07:45:26;;;;;;;6.17;5.60;;;;;;;-2.34;96.64;101790.88;5058150;28;20248;-83
2023/02/27 07:47:52;;;;;;;11.80;5.77;;;;;;;-2.34;96.73;101788.31;5057411;28;20339;-84
2023/02/27 07:50:18;;;;;;;5.97;5.37;;;;;;;-2.35;97.01;101780.59;5058236;28;20230;-83
2023/02/27 07:52:45;;;;;;;5.60;5.10;;;;;;;-2.35;96.95;101778.91;5057430;28;20201;-81
2023/02/27 07:55:13;;;;;;;6.07;5.47;;;;;;;-2.37;97.60;101772.81;5057497;28;20212;-79
2023/02/27 07:57:39;;;;;;;5.97;5.40;;;;;;;-2.31;97.83;101764.59;5058741;28;20228;-81
2023/02/27 08:00:09;;;;;;;6.97;6.03;;;;;;;-2.25;97.77;101755.59;5057936;28;20252;-80
2023/02/27 08:02:35;;;;;;;8.87;6.97;;;;;;;-2.16;97.79;101757.78;5056565;28;20242;-80
2023/02/27 08:05:02;;;;;;;6.80;6.10;;;;;;;-2.11;97.55;101758.00;5056954;28;20201;-79
2023/02/27 08:07:28;;;;;;;7.33;5.90;;;;;;;-2.11;97.76;101765.69;5057885;28;20213;-80
2023/02/27 08:09:54;;;;;;;9.13;6.93;;;;;;;-2.09;98.14;101764.97;5059635;28;20225;-82
2023/02/27 08:12:21;;;;;;;19.90;13.97;;;;;;;-2.02;98.05;101764.50;5061006;28;20197;-82
2023/02/27 08:14:47;;;;;;;7.23;6.53;;;;;;;-1.92;97.52;101776.13;5059950;28;20260;-81
2023/02/27 08:17:15;;;;;;;7.97;6.57;;;;;;;-1.76;97.66;101782.03;5052239;28;20194;-81
2023/02/27 08:19:41;;;;;;;6.53;5.80;;;;;;;-1.58;97.77;101784.69;5064210;28;20221;-81
2023/02/27 08:22:08;;;;;;;7.33;6.10;;;;;;;-1.48;97.10;101800.59;5059827;28;20291;-80
2023/02/27 08:24:34;;;;;;;7.03;6.07;;;;;;;-1.35;96.79;101811.47;5062681;28;20251;-83
2023/02/27 08:27:01;;;;;;;8.27;5.77;;;;;;;-1.28;96.32;101828.94;5053255;28;20642;-83
2023/02/27 08:29:27;;;;;;;7.80;5.63;;;;;;;-1.25;95.36;101845.34;5051895;28;20226;-81
2023/02/27 08:31:53;;;;;;;6.17;5.57;;;;;;;-1.13;95.02;101864.69;5061320;28;20217;-82
2023/02/27 08:34:21;;;;;;;7.97;5.47;;;;;;;-1.11;93.75;101898.97;5062267;28;20253;-81
2023/02/27 08:36:47;;;;;;;6.20;5.17;;;;;;;-1.03;92.90;101924.19;5061314;28;20213;-81
2023/02/27 08:39:14;;;;;;;8.30;5.97;;;;;;;-0.77;92.98;101934.00;5053434;28;20228;-81
2023/02/27 08:41:40;;;;;;;6.57;5.93;;;;;;;-0.58;92.32;101939.28;5060034;28;20253;-79
2023/02/27 08:44:07;;;;;;;6.27;5.67;;;;;;;-0.68;91.57;101975.53;5060363;28;20592;-81
2023/02/27 08:46:33;;;;;;;7.20;6.50;;;;;;;-0.81;91.82;101980.03;5049183;28;20669;-81
2023/02/27 08:48:59;;;;;;;9.07;7.70;;;;;;;-1.03;92.02;101979.66;5060982;28;20320;-82
2023/02/27 08:51:27;;;;;;;7.17;5.93;;;;;;;-1.11;92.96;101965.56;5058395;28;20212;-82
2023/02/27 08:53:57;;;;;;;9.83;6.60;;;;;;;-1.13;94.20;101947.59;5048103;28;20199;-81
2023/02/27 08:56:24;;;;;;;9.43;7.13;;;;;;;-1.05;94.16;101938.63;5060177;28;20261;-81
2023/02/27 08:58:51;;;;;;;8.70;6.50;;;;;;;-1.01;94.00;101937.97;5059625;28;20222;-82
2023/02/27 09:01:17;;;;;;;9.87;8.07;;;;;;;-0.91;93.70;101941.91;5058135;28;20656;-81
2023/02/27 09:03:44;;;;;;;8.87;7.10;;;;;;;-0.75;93.97;101940.09;5057342;28;20703;-81
2023/02/27 09:06:11;;;;;;;9.77;6.50;;;;;;;-0.60;93.52;101948.59;5049641;28;20284;-81
2023/02/27 09:08:38;;;;;;;7.40;6.53;;;;;;;-0.56;93.12;101953.06;5050810;28;20194;-83
2023/02/27 09:11:05;;;;;;;7.27;6.67;;;;;;;-0.46;93.23;101962.97;5059586;28;20251;-82
2023/02/27 09:13:32;;;;;;;8.30;6.63;;;;;;;-0.30;92.37;101974.88;5059676;28;20206;-82
2023/02/27 09:15:59;;;;;;;9.47;6.73;;;;;;;-0.26;91.72;101984.53;5059862;28;20211;-82
2023/02/27 09:18:25;;;;;;;10.27;5.87;;;;;;;-0.08;92.22;101996.50;5048984;28;20198;-81
2023/02/27 09:20:52;;;;;;;6.77;6.07;;;;;;;0.01;91.50;102006.34;5050148;28;20198;-82
2023/02/27 09:23:18;;;;;;;6.90;6.20;;;;;;;0.15;91.10;102007.91;5055936;28;20213;-82
2023/02/27 09:25:47;;;;;;;7.80;6.30;;;;;;;0.24;91.33;102022.88;5059913;28;20228;-81
2023/02/27 09:28:13;;;;;;;7.20;6.37;;;;;;;0.24;90.74;102028.91;5046883;28;20281;-81
2023/02/27 09:30:39;;;;;;;8.83;6.40;;;;;;;0.30;89.79;102044.59;5057327;28;20218;-82
2023/02/27 09:33:06;;;;;;;8.37;6.00;;;;;;;0.46;89.22;102055.63;5057193;28;20190;-82
2023/02/27 09:35:32;;;;;;;6.60;5.90;;;;;;;0.66;89.09;102072.00;5046514;28;20204;-83
2023/02/27 09:37:59;;;;;;;6.37;5.73;;;;;;;0.83;88.06;102083.94;5055875;28;20198;-82
2023/02/27 09:40:27;;;;;;;5.73;5.00;;;;;;;0.94;86.19;102116.19;5060095;28;20222;-83
2023/02/27 09:42:59;;;;;;;6.00;5.47;;;;;;;0.95;86.21;102153.97;5058454;28;20590;-82
2023/02/27 09:45:28;;;;;;;8.30;6.70;;;;;;;0.99;85.76;102173.88;5059000;28;20263;-81
2023/02/27 09:47:57;;;;;;;7.17;6.00;;;;;;;0.97;84.86;102192.56;5046590;28;20199;-83
2023/02/27 09:50:36;;;;;;;9.23;5.77;;;;;;;0.96;85.79;102199.41;5057395;28;20244;-83
2023/02/27 09:53:03;;;;;;;6.67;6.07;;;;;;;0.97;85.26;102198.63;5055557;28;20216;-81
2023/02/27 09:55:34;;;;;;;6.17;5.17;;;;;;;0.95;86.02;102200.25;5057528;28;20198;-82
2023/02/27 09:58:06;;;;;;;6.73;5.20;;;;;;;0.96;85.77;102191.69;5055250;28;20195;-82
2023/02/27 10:00:45;;;;;;;6.47;4.20;;;;;;;1.07;86.19;102184.53;5057379;28;20226;-81
2023/02/27 10:03:30;;;;;;;4.40;4.00;;;;;;;1.10;86.09;102182.09;5045473;28;20214;-80
2023/02/27 10:06:11;;;;;;;9.00;4.97;;;;;;;1.10;86.12;102191.50;5055777;28;20197;-82
2023/02/27 10:08:44;;;;;;;5.03;4.53;;;;;;;1.07;85.62;102202.53;5047701;28;20198;-82
2023/02/27 10:11:15;;;;;;;5.47;3.83;;;;;;;1.08;86.24;102182.81;5054821;28;20201;-82
2023/02/27 10:13:56;;;;;;;4.40;3.97;;;;;;;1.17;85.31;102183.28;5054120;28;20207;-80
2023/02/27 10:16:24;;;;;;;4.80;3.90;;;;;;;1.27;84.24;102200.00;5054409;28;20606;-82
2023/02/27 10:18:56;;;;;;;5.73;3.83;;;;;;;1.24;84.10;102213.59;5045507;28;20244;-81
2023/02/27 10:21:29;;;;;;;6.33;4.33;;;;;;;1.26;84.28;102218.84;5055414;28;20251;-81
2023/02/27 10:24:01;;;;;;;6.33;3.57;;;;;;;1.25;85.00;102219.63;5056442;28;20230;-80
2023/02/27 10:26:30;;;;;;;7.20;3.90;;;;;;;1.33;84.79;102205.47;5056184;28;20552;-81
2023/02/27 10:29:02;;;;;;;4.50;3.30;;;;;;;1.46;83.67;102207.78;5045453;28;20224;-82
2023/02/27 10:31:33;;;;;;;4.13;2.70;;;;;;;1.50;83.14;102229.41;5046920;28;20259;-82
2023/02/27 10:34:00;;;;;;;4.00;3.07;;;;;;;1.52;82.14;102256.97;5055209;28;20205;-81
2023/02/27 10:36:28;;;;;;;5.73;3.50;;;;;;;1.54;82.37;102278.50;5055832;28;20201;-81
2023/02/27 10:38:58;;;;;;;5.60;4.30;;;;;;;1.46;81.77;102292.69;4353402;28;10000680;-80
2023/02/27 10:41:26;;;;;;;10.07;4.77;;;;;;;1.44;83.09;102290.88;5054712;28;20207;-80
2023/02/27 10:43:58;;;;;;;5.87;4.10;;;;;;;1.53;82.21;102286.16;5054777;28;20229;-79
2023/02/27 10:46:27;;;;;;;6.10;4.60;;;;;;;1.59;82.19;102292.47;5054936;28;20209;-80
2023/02/27 10:48:54;;;;;;;3.40;2.20;;;;;;;1.70;81.71;102303.28;5054856;28;20263;-80
2023/02/27 10:51:24;;;;;;;1.43;1.17;;;;;;;1.83;80.46;102327.94;5054415;28;20214;-80
2023/02/27 10:53:52;;;;;;;4.67;2.73;;;;;;;1.84;79.35;102352.84;5054505;28;20232;-80
2023/02/27 10:56:24;;;;;;;1.93;1.47;;;;;;;1.85;78.32;102377.81;5054221;28;20210;-80
2023/02/27 10:59:04;;;;;;;2.37;1.10;;;;;;;1.96;78.36;102391.19;5056908;28;20272;-79
2023/02/27 11:01:42;;;;;;;4.93;1.30;;;;;;;1.97;78.04;102409.28;5057485;28;20209;-80
2023/02/27 11:04:08;;;;;;;4.83;2.47;;;;;;;2.10;78.69;102415.00;5056679;28;20230;-80
2023/02/27 11:06:35;;;;;;;3.77;1.93;;;;;;;2.18;78.56;102405.94;5055200;28;20994;-80
2023/02/27 11:09:11;;;;;;;4.03;1.83;;;;;;;2.28;79.04;102405.59;5055721;28;20226;-80
2023/02/27 11:11:38;;;;;;;5.23;1.67;;;;;;;2.44;78.67;102407.19;5054344;28;20924;-79
2023/02/27 11:14:25;;;;;;;2.47;2.07;;;;;;;2.45;77.48;102420.97;5054617;28;20263;-79
2023/02/27 11:16:53;;;;;;;2.20;2.00;;;;;;;2.42;76.81;102446.56;5054748;28;20712;-80
2023/02/27 11:19:32;;;;;;;3.63;2.43;;;;;;;2.46;76.63;102446.81;5054492;28;20225;-79
2023/02/27 11:22:04;;;;;;;5.37;2.37;;;;;;;2.51;76.38;102453.03;5054614;28;20205;-79
2023/02/27 11:24:32;;;;;;;5.07;2.77;;;;;;;2.56;76.38;102472.19;5054276;28;20233;-78
2023/02/27 11:27:02;;;;;;;4.97;2.90;;;;;;;2.61;75.89;102466.38;5053614;28;20202;-79
2023/02/27 11:29:30;;;;;;;4.97;2.60;;;;;;;2.67;77.13;102467.53;5053829;28;20218;-80
2023/02/27 11:31:59;;;;;;;4.17;2.97;;;;;;;2.77;76.76;102451.69;5053253;28;20272;-79
2023/02/27 11:34:29;;;;;;;4.23;2.40;;;;;;;2.81;75.81;102454.38;5053171;28;20263;-79
2023/02/27 11:36:59;;;;;;;2.77;2.00;;;;;;;2.78;75.80;102473.19;5052774;28;20643;-79
2023/02/27 11:39:31;;;;;;;4.03;2.00;;;;;;;2.82;76.27;102471.66;5052015;28;20263;-79
2023/02/27 11:42:05;;;;;;;4.40;2.27;;;;;;;2.87;76.13;102468.44;5054412;28;20676;-79